KERI/ERI METAR and TAF weather

Enter ICAO airport designator
Station Type Date Time Source
KERI METAR 2019/04/23 03:51 UTC NOAA

KERI 230351Z 18003KT 10SM CLR 11/07 A3008 RMK AO2 SLP185 T01110072


Station Type Date Time Source
KERI Decoded METAR 2019/04/23 03:51 UTC NOAA

ERIE INTERNATIONAL AIRPORT, PA, United States (KERI) 42-05N 080-11W 222M
Apr 22, 2019 - 11:51 PM EDT / 2019.04.23 0351 UTC
Wind: from the S (180 degrees) at 3 MPH (3 KT):0
Visibility: 10 mile(s):0
Sky conditions: clear
Temperature: 52.0 F (11.1 C)
Dew Point: 45.0 F (7.2 C)
Relative Humidity: 76%
Pressure (altimeter): 30.08 in. Hg (1018 hPa)
ob: KERI 230351Z 18003KT 10SM CLR 11/07 A3008 RMK AO2 SLP185 T01110072
cycle: 4

Station Type Date Time Source
KERI TAF 2019/04/22 18:22 UTC NOAA

TAF KERI 221720Z 2218/2318 34006KT P6SM BKN120
FM222100 02006KT P6SM SCT250
FM230100 08004KT P6SM SCT250
FM230900 17009KT P6SM SCT250
FM231600 20015KT P6SM VCSH BKN080

Example: see airport list